Date,TemperatureHighF,TemperatureAvgF,TemperatureLowF,DewpointHighF,DewpointAvgF,DewpointLowF,HumidityHigh,HumidityAvg,HumidityLow,PressureMaxIn,PressureMinIn,WindSpeedMaxMPH,WindSpeedAvgMPH,GustSpeedMaxMPH,PrecipitationSumIn
2013-1-1,76,64,52,61,57,51,98,80,55,0.00,40.00,10,4,0,0.00
2013-1-2,79,68,55,67,63,54,97,85,64,0.00,40.00,7,4,0,0.09
2013-1-3,71,64,57,66,63,55,99,94,82,0.00,40.00,14,5,0,0.11
2013-1-4,58,56,53,58,56,53,99,98,97,0.00,40.00,13,7,0,0.42
2013-1-5,74,61,51,63,56,49,99,84,65,0.00,40.00,9,6,0,0.00
2013-1-6,80,66,59,68,63,58,98,88,67,0.00,40.00,12,4,0,0.03
2013-1-7,69,61,53,61,57,50,97,87,68,0.00,40.00,12,8,0,0.14
2013-1-8,81,70,61,71,67,60,98,88,65,0.00,40.00,10,6,0,0.00
2013-1-9,82,73,68,72,70,67,99,89,70,0.00,40.00,10,6,0,0.00
2013-1-10,82,72,64,71,67,63,99,85,54,0.00,40.00,13,7,0,0.00
2013-1-11,82,71,60,71,65,60,99,83,57,0.00,40.00,9,5,0,0.00
2013-1-12,83,72,63,69,65,62,99,81,51,0.00,40.00,10,5,0,0.00
2013-1-13,81,71,63,68,64,62,99,81,52,0.00,40.00,9,5,0,0.00
2013-1-14,82,71,63,67,65,62,98,81,53,0.00,40.00,7,5,0,0.00
2013-1-15,82,72,63,69,65,61,98,81,50,0.00,40.00,8,5,0,0.00
2013-1-16,82,70,61,68,63,60,99,80,48,0.00,40.00,7,3,0,0.00
2013-1-17,77,64,53,69,60,46,97,86,70,0.00,40.00,19,10,0,0.00
2013-1-18,67,53,40,57,46,35,91,78,65,0.00,40.00,19,10,0,0.00
2013-1-19,74,63,53,61,57,50,93,81,62,0.00,40.00,14,8,0,0.00
2013-1-20,73,64,59,62,58,54,96,83,67,0.00,40.00,10,6,0,0.00
2013-1-21,74,65,59,62,58,55,90,76,60,0.00,40.00,7,4,0,0.00
2013-1-22,63,56,46,55,43,36,86,62,37,0.00,40.00,13,6,0,0.00
2013-1-23,67,54,44,44,36,30,87,55,26,0.00,40.00,10,5,0,0.00
2013-1-24,72,58,44,57,49,42,94,74,44,0.00,40.00,10,4,0,0.00
2013-1-25,75,61,51,60,53,49,99,77,44,0.00,40.00,8,4,0,0.00
2013-1-26,75,62,50,60,55,48,98,79,53,0.00,40.00,9,4,0,0.00
2013-1-27,79,64,50,63,58,49,99,82,49,0.00,40.00,11,5,0,0.00
2013-1-28,79,70,63,65,64,61,95,80,61,0.00,40.00,12,7,0,0.00
2013-1-29,83,72,63,70,66,63,99,82,51,0.00,40.00,11,7,0,0.00
2013-1-30,84,74,65,67,66,64,96,76,52,0.00,40.00,14,9,0,0.00
2013-1-31,72,57,47,66,38,28,84,50,28,0.00,40.00,12,8,0,0.00
2013-2-1,67,53,41,40,33,25,76,49,20,0.00,40.00,10,5,0,0.00
2013-2-2,70,55,41,45,39,32,83,58,26,0.00,40.00,9,4,0,0.00
2013-2-3,70,56,40,54,44,37,89,67,37,0.00,40.00,13,6,0,0.00
2013-2-4,67,54,40,47,40,33,97,63,28,0.00,40.00,9,3,0,0.00
2013-2-5,75,58,41,53,46,37,90,65,40,0.00,40.00,7,3,0,0.00
2013-2-6,77,67,55,65,58,52,89,75,58,0.00,40.00,7,4,0,0.00
2013-2-7,80,72,62,66,63,60,94,73,55,0.00,40.00,13,7,0,0.00
2013-2-8,79,69,58,66,61,56,94,78,48,0.00,40.00,12,8,0,0.00
2013-2-9,74,61,50,57,54,49,99,80,51,0.00,40.00,11,6,0,0.00
2013-2-10,79,67,56,60,57,53,91,72,49,0.00,40.00,14,9,0,0.00
2013-2-11,81,70,59,64,61,58,96,74,51,0.00,40.00,12,6,0,0.00
2013-2-12,83,73,63,68,65,61,97,76,49,0.00,40.00,8,3,0,0.00
2013-2-13,84,72,63,70,67,58,93,83,57,0.00,40.00,15,8,0,0.17
2013-2-14,66,62,56,62,59,54,96,89,74,0.00,40.00,11,4,0,0.14
2013-2-15,68,58,53,57,54,51,96,86,60,0.00,40.00,9,5,0,0.00
2013-2-16,67,56,50,53,44,27,95,67,37,0.00,40.00,21,9,0,0.00
2013-2-17,54,45,35,29,18,11,71,37,18,0.00,40.00,18,7,0,0.00
2013-2-18,68,50,31,46,33,19,79,55,27,0.00,40.00,11,6,0,0.00
2013-2-19,76,63,46,58,52,44,93,70,47,0.00,40.00,9,5,0,0.00
2013-2-20,74,64,58,60,55,52,94,73,52,0.00,40.00,11,6,0,0.00
2013-2-21,83,69,53,65,58,50,91,69,44,0.00,40.00,8,5,0,0.00
2013-2-22,87,75,65,70,66,60,95,74,41,0.00,40.00,11,6,0,0.00
2013-2-23,86,76,70,71,68,65,94,78,50,0.00,40.00,11,7,0,0.03
2013-2-24,77,71,66,71,68,64,95,91,80,0.00,40.00,8,5,0,0.71
2013-2-25,85,73,64,72,66,62,97,80,48,0.00,40.00,9,5,0,0.00
2013-2-26,76,72,67,72,68,62,93,85,71,0.00,40.00,14,9,0,0.06
2013-2-27,74,66,57,64,56,50,90,71,46,0.00,40.00,13,8,0,0.00
2013-2-28,73,62,52,54,50,45,89,68,38,0.00,40.00,14,8,0,0.00
2013-3-1,65,56,49,50,40,34,87,58,35,0.00,40.00,13,8,0,0.00
2013-3-2,58,51,44,38,34,29,68,52,33,0.00,40.00,20,11,0,0.00
2013-3-3,52,44,37,34,31,28,77,60,45,0.00,40.00,16,10,0,0.00
2013-3-4,63,48,33,38,31,20,90,56,24,0.00,40.00,10,4,0,0.00
2013-3-5,75,60,42,58,46,37,89,61,34,0.00,40.00,12,6,0,0.00
2013-3-6,67,59,48,61,42,30,93,57,31,0.00,40.00,18,12,0,0.00
2013-3-7,65,52,39,46,38,31,86,60,43,0.00,40.00,10,6,0,0.00
2013-3-8,73,56,42,50,44,40,95,68,31,0.00,40.00,9,4,0,0.00
2013-3-9,75,60,45,53,48,43,94,66,35,0.00,40.00,11,6,0,0.00
2013-3-10,79,66,53,56,54,51,93,68,38,0.00,40.00,16,7,0,0.00
2013-3-11,80,68,57,62,57,54,91,69,45,0.00,40.00,13,7,0,0.00
2013-3-12,72,67,59,67,62,57,94,85,73,0.00,40.00,12,8,0,0.11
2013-3-13,75,62,50,57,41,28,93,54,18,0.00,40.00,13,7,0,0.00
2013-3-14,67,56,45,44,32,20,78,45,16,0.00,40.00,13,7,0,0.00
2013-3-15,71,55,40,48,40,36,94,63,31,0.00,40.00,10,4,0,0.00
2013-3-16,79,62,44,50,44,38,91,56,23,0.00,40.00,9,4,0,0.00
2013-3-17,76,64,47,59,51,45,93,65,42,0.00,40.00,9,4,0,0.00
2013-3-18,79,72,64,66,63,60,87,74,60,0.00,40.00,11,5,0,0.03
2013-3-19,85,73,64,66,62,56,95,70,38,0.00,40.00,10,6,0,0.00
2013-3-20,75,68,59,67,62,51,95,81,54,0.00,40.00,14,5,0,0.06
2013-3-21,70,59,49,58,43,26,96,60,18,0.00,40.00,12,7,0,0.00
2013-3-22,79,61,45,61,49,41,93,68,34,0.00,40.00,11,5,0,0.03
2013-3-23,84,73,64,73,67,61,96,83,64,0.00,40.00,11,6,0,0.00
2013-3-24,81,73,68,73,69,65,94,87,72,0.00,40.00,21,11,0,0.27
2013-3-25,71,65,54,67,47,29,90,56,21,0.00,40.00,16,12,0,0.00
2013-3-26,59,52,44,43,30,22,68,44,24,0.00,40.00,18,11,0,0.00
2013-3-27,63,50,37,39,32,27,79,53,25,0.00,40.00,11,6,0,0.00
2013-3-28,70,55,39,44,37,28,92,57,24,0.00,40.00,10,4,0,0.00
2013-3-29,73,60,45,48,39,32,89,53,23,0.00,40.00,9,4,0,0.00
2013-3-30,78,63,46,55,47,40,92,58,32,0.00,40.00,10,4,0,0.00
2013-3-31,82,70,59,61,52,-100,80,57,33,0.00,40.00,11,5,0,0.00
2013-4-1,82,73,65,66,63,58,88,71,51,0.00,40.00,14,7,0,0.00
2013-4-2,85,72,63,66,58,46,94,65,31,0.00,40.00,11,6,0,0.00
2013-4-3,85,71,60,68,62,56,94,74,44,0.00,40.00,12,7,0,0.06
2013-4-4,74,71,68,70,68,64,96,90,80,0.00,40.00,14,6,0,0.11
2013-4-5,76,69,59,67,63,56,93,83,57,0.00,40.00,16,8,0,0.00
2013-4-6,77,65,53,59,55,51,93,73,49,0.00,40.00,13,9,0,0.00
2013-4-7,81,68,57,63,58,55,96,72,43,0.00,40.00,12,6,0,0.00
2013-4-8,84,72,60,65,60,57,96,69,42,0.00,40.00,11,6,0,0.00
2013-4-9,85,73,61,68,62,57,96,71,43,0.00,40.00,13,7,0,0.00
2013-4-10,88,74,60,70,64,58,96,74,37,0.00,40.00,11,6,0,0.00
2013-4-11,91,80,73,72,70,67,92,74,45,0.00,40.00,13,9,0,0.00
2013-4-12,84,78,75,74,72,71,90,82,67,0.00,40.00,14,8,0,0.00
2013-4-13,86,76,69,72,67,58,95,73,45,0.00,40.00,12,5,0,0.00
2013-4-14,89,75,67,72,67,61,94,77,55,0.00,40.00,12,7,0,0.91
2013-4-15,88,76,67,68,64,62,89,69,45,0.00,40.00,11,6,0,0.00
2013-4-16,87,76,67,71,68,64,96,76,55,0.00,40.00,13,8,0,0.00
2013-4-17,84,74,65,69,66,63,97,78,50,0.00,40.00,13,7,0,0.00
2013-4-18,88,77,66,71,67,62,97,73,45,0.00,40.00,13,3,0,0.11
2013-4-19,89,80,74,73,71,68,92,74,50,0.00,40.00,12,7,0,0.00
2013-4-20,77,66,59,71,62,56,92,86,77,0.00,40.00,13,7,0,0.00
2013-4-21,79,68,59,72,65,56,97,90,73,0.00,40.00,11,6,0,1.74
2013-4-22,77,69,64,70,67,62,97,92,73,0.00,40.00,14,8,0,0.08
2013-4-23,81,70,62,66,61,56,96,75,44,0.00,40.00,13,8,0,0.00
2013-4-24,85,71,57,64,60,53,96,70,33,0.00,40.00,9,6,0,0.00
2013-4-25,86,75,62,67,62,57,95,68,37,0.00,40.00,8,4,0,0.00
2013-4-26,87,76,64,68,65,62,93,70,44,0.00,40.00,11,5,0,0.00
2013-4-27,85,74,64,69,65,62,97,74,46,0.00,40.00,13,7,0,0.00
2013-4-28,83,74,65,68,65,62,96,75,50,0.00,40.00,14,7,0,0.00
2013-4-29,84,75,66,69,65,60,95,71,47,0.00,40.00,12,5,0,0.08
2013-4-30,88,74,68,70,67,61,97,81,40,0.00,40.00,14,5,0,0.88
2013-5-1,78,72,68,73,70,67,97,93,76,0.00,40.00,12,5,0,0.14
2013-5-2,74,70,66,71,69,65,98,96,86,0.00,40.00,11,5,0,3.04
2013-5-3,81,72,68,71,69,67,98,88,68,0.00,40.00,18,7,0,2.47
2013-5-4,83,74,69,72,69,68,96,84,65,0.00,40.00,14,7,0,0.03
2013-5-5,78,70,62,69,55,45,94,61,33,0.00,40.00,16,11,0,0.00
2013-5-6,75,69,64,62,56,52,85,65,45,0.00,40.00,12,8,0,0.00
2013-5-7,78,69,57,63,57,54,91,68,49,0.00,40.00,14,8,0,0.00
2013-5-8,82,72,64,64,62,59,92,70,48,0.00,40.00,10,6,0,0.00
2013-5-9,84,73,61,68,62,58,96,72,41,0.00,40.00,10,4,0,0.00
2013-5-10,90,76,64,71,64,-100,95,72,45,0.00,40.00,11,5,0,0.00
2013-5-11,89,77,69,73,70,66,95,79,55,0.00,40.00,17,5,0,0.00
2013-5-12,88,77,69,72,67,-100,94,73,51,0.00,40.00,13,7,0,0.00
2013-5-13,83,74,65,68,59,47,94,63,33,0.00,40.00,10,6,0,0.00
2013-5-14,83,70,55,57,52,43,91,57,24,0.00,40.00,10,6,0,0.00
2013-5-15,86,73,58,63,57,51,94,62,30,0.00,40.00,9,5,0,0.00
2013-5-16,87,69,64,64,41,-100,92,66,38,0.00,40.00,11,6,0,0.00
2013-5-17,88,75,63,69,58,-100,93,69,43,0.00,40.00,12,6,0,0.00
2013-5-18,91,79,67,72,68,61,95,71,37,0.00,40.00,13,6,0,0.00
2013-5-19,90,78,72,73,71,67,94,81,52,0.00,40.00,16,6,0,0.06
2013-5-20,91,77,71,74,71,66,96,82,45,0.00,40.00,18,5,0,0.03
2013-5-21,81,74,69,73,71,68,97,89,74,0.00,40.00,11,4,0,0.27
2013-5-22,87,76,69,74,71,69,97,85,60,0.00,40.00,12,4,0,0.00
2013-5-23,89,77,69,75,72,68,97,83,56,0.00,40.00,12,4,0,0.00
2013-5-24,94,82,73,76,70,62,94,70,34,0.00,40.00,10,6,0,0.00
2013-5-25,86,77,67,70,64,59,95,66,42,0.00,40.00,12,7,0,0.00
2013-5-26,87,74,59,63,59,50,94,62,29,0.00,40.00,11,6,0,0.00
2013-5-27,86,75,64,66,63,61,92,67,43,0.00,40.00,13,7,0,0.00
2013-5-28,89,78,67,71,68,65,93,74,52,0.00,40.00,14,8,0,0.00
2013-5-29,87,78,72,74,72,70,94,82,56,0.00,40.00,17,8,0,0.00
2013-5-30,86,78,72,75,72,68,94,82,59,0.00,40.00,15,9,0,0.49
2013-5-31,86,79,73,74,71,70,92,78,59,0.00,40.00,16,10,0,0.03
2013-6-1,88,80,73,76,73,71,94,81,65,0.00,40.00,15,8,0,0.00
2013-6-2,91,80,74,76,73,-100,97,83,55,0.00,40.00,11,5,0,0.30
2013-6-3,89,80,74,77,75,73,96,86,61,0.00,40.00,10,5,0,0.00
2013-6-4,85,78,72,75,74,71,94,87,71,0.00,40.00,12,5,0,0.82
2013-6-5,85,76,72,77,73,70,97,91,67,0.00,40.00,13,5,0,0.14
2013-6-6,81,76,73,77,74,71,97,92,75,0.00,40.00,16,10,0,1.95
2013-6-7,89,81,74,76,74,73,94,80,63,0.00,40.00,11,7,0,0.00
2013-6-8,89,78,72,76,73,69,95,85,61,0.00,40.00,23,4,0,0.38
2013-6-9,90,80,72,78,74,71,97,84,59,0.00,40.00,11,5,0,0.00
2013-6-10,93,81,75,77,74,70,95,80,49,0.00,40.00,12,5,0,0.00
2013-6-11,89,79,74,78,75,72,97,88,67,0.00,40.00,11,4,0,0.03
2013-6-12,94,82,73,78,74,71,97,77,47,0.00,40.00,11,4,0,0.00
2013-6-13,93,84,75,78,74,72,92,75,52,0.00,40.00,11,6,0,0.00
2013-6-14,91,84,79,76,74,69,89,73,49,0.00,40.00,11,9,0,0.00
2013-6-15,91,82,77,78,76,73,95,83,65,0.00,40.00,13,7,0,0.03
2013-6-16,91,82,79,78,76,73,90,80,62,0.00,40.00,13,7,0,0.33
2013-6-17,92,82,75,79,77,73,96,85,60,0.00,40.00,10,5,0,1.51
2013-6-18,92,83,74,78,76,73,96,79,58,0.00,40.00,10,5,0,0.00
2013-6-19,91,83,77,77,76,72,94,78,60,0.00,40.00,11,4,0,0.00
2013-6-20,93,82,75,77,74,72,92,78,52,0.00,40.00,6,4,0,0.00
2013-6-22,90,83,77,76,74,72,92,76,58,0.00,40.00,15,5,0,0.00
2013-6-23,89,80,72,78,74,71,96,84,61,0.00,40.00,13,5,0,0.03
2013-6-24,92,83,75,77,74,72,95,78,53,0.00,40.00,12,6,0,0.27
2013-6-25,91,82,74,77,74,70,96,77,55,0.00,40.00,11,5,0,0.00
2013-6-26,93,82,75,77,75,72,95,79,57,0.00,40.00,12,5,0,0.00
2013-6-27,90,81,72,76,74,71,95,80,59,0.00,40.00,11,4,0,0.00
2013-6-28,91,81,75,78,75,72,93,82,61,0.00,40.00,14,5,0,0.00
2013-6-29,89,81,77,79,76,72,94,84,64,0.00,40.00,12,6,0,0.08
2013-6-30,89,79,76,78,75,73,93,88,67,0.00,40.00,9,6,0,0.00
2013-7-1,84,78,74,76,74,72,94,87,76,0.00,40.00,10,7,0,0.17
2013-7-2,86,78,74,79,75,72,97,90,75,0.00,40.00,13,5,0,0.03
2013-7-3,89,79,74,78,76,73,97,89,67,0.00,40.00,10,6,0,0.54
2013-7-4,91,78,72,78,74,70,97,89,58,0.00,40.00,13,6,0,0.72
2013-7-5,90,81,73,80,75,72,97,82,56,0.00,40.00,15,8,0,0.06
2013-7-6,91,82,75,77,75,73,95,80,55,0.00,40.00,14,7,0,0.00
2013-7-7,91,83,75,77,74,71,96,77,51,0.00,40.00,12,7,0,0.00
2013-7-8,92,83,76,78,75,73,96,78,55,0.00,40.00,11,6,0,0.00
2013-7-9,92,82,73,77,72,69,96,74,48,0.00,40.00,11,6,0,0.00
2013-7-10,90,80,73,76,70,-100,96,75,55,0.00,40.00,10,4,0,0.00
2013-7-11,93,82,76,76,74,70,92,77,46,0.00,40.00,8,4,0,0.00
2013-7-12,87,80,74,77,75,72,95,85,68,0.00,40.00,10,4,0,2.33
2013-7-13,93,78,74,76,74,71,97,87,49,0.00,40.00,8,3,0,0.14
2013-7-14,89,78,73,78,74,72,97,88,61,0.00,40.00,12,5,0,0.00
2013-7-15,87,79,71,79,74,70,97,86,67,0.00,40.00,12,6,0,0.19
2013-7-16,87,79,75,77,75,73,96,86,66,0.00,40.00,11,6,0,0.57
2013-7-17,90,80,74,78,75,73,97,86,61,0.00,40.00,15,6,0,2.02
2013-7-18,87,79,74,77,74,71,97,85,60,0.00,40.00,10,5,0,0.00
2013-7-19,89,79,74,76,74,72,97,86,60,0.00,40.00,12,5,0,1.16
2013-7-20,90,78,74,79,73,-100,97,89,67,0.00,40.00,10,4,0,0.19
2013-7-21,92,79,74,80,75,73,97,88,59,0.00,40.00,9,3,0,0.00
2013-7-22,91,81,76,79,76,74,96,86,63,0.00,40.00,13,4,0,0.11
2013-7-23,84,78,76,78,75,73,96,90,80,0.00,40.00,16,6,0,0.11
2013-7-24,87,81,75,79,77,73,95,87,75,0.00,40.00,12,7,0,0.33
2013-7-25,85,81,76,78,77,73,94,86,73,0.00,40.00,15,8,0,0.00
2013-7-26,91,82,76,80,77,74,96,85,61,0.00,40.00,9,4,0,0.11
2013-7-27,93,82,75,79,76,74,98,84,57,0.00,40.00,12,4,0,0.00
2013-7-28,91,80,74,78,75,73,96,83,56,0.00,40.00,11,4,0,0.03
2013-7-29,93,82,74,78,75,72,97,80,56,0.00,40.00,10,4,0,0.00
2013-7-30,94,84,75,79,75,70,96,76,47,0.00,40.00,11,4,0,0.00
2013-7-31,93,83,76,79,76,73,96,81,55,0.00,40.00,11,4,0,0.14
2013-8-1,92,80,76,78,75,72,97,85,54,0.00,40.00,8,4,0,0.11
2013-8-2,92,82,74,78,74,73,97,79,54,0.00,40.00,9,4,0,0.00
2013-8-3,90,81,76,79,76,74,95,86,64,0.00,40.00,11,4,0,0.00
2013-8-4,88,81,76,80,78,75,96,89,73,0.00,40.00,11,5,0,0.00
2013-8-5,92,84,76,81,78,73,92,83,63,0.00,40.00,18,6,0,0.38
2013-8-6,93,82,75,79,77,74,96,85,57,0.00,40.00,14,4,0,0.00
2013-8-7,93,82,77,80,77,75,97,86,56,0.00,40.00,13,4,0,0.03
2013-8-8,92,83,77,79,77,74,97,82,55,0.00,40.00,14,5,0,0.00
2013-8-12,95,89,80,77,75,72,85,63,49,0.00,40.00,8,5,0,0.00
2013-8-13,95,83,76,77,71,-100,95,72,45,0.00,40.00,6,4,0,0.00
2013-8-14,93,77,75,80,68,-100,96,84,56,0.00,40.00,11,4,0,0.03
2013-8-15,94,72,75,78,50,-100,95,73,50,0.00,40.00,13,4,0,0.00
2013-8-16,92,79,78,78,69,-100,93,80,59,0.00,40.00,8,4,0,0.00
2013-8-19,91,74,75,81,54,-100,97,85,61,0.00,40.00,10,4,0,0.08
2013-8-20,94,82,76,79,72,-100,97,77,50,0.00,40.00,12,5,0,0.00
2013-8-21,93,79,74,79,76,72,96,90,58,0.00,40.00,15,6,0,0.08
2013-8-22,88,79,76,80,76,73,97,92,74,0.00,40.00,14,4,0,0.00
2013-8-23,90,79,75,81,76,73,98,92,67,0.00,40.00,9,4,0,0.71
2013-8-24,90,79,75,80,76,74,98,91,68,0.00,40.00,11,4,0,0.06
2013-8-25,87,76,74,78,71,-100,98,88,70,0.00,40.00,10,4,0,0.00
2013-8-26,88,82,74,79,76,73,97,83,66,0.00,40.00,13,7,0,0.25
2013-8-27,90,80,74,76,73,70,97,83,51,0.00,40.00,11,6,0,0.00
2013-8-28,91,86,78,71,70,68,80,59,47,0.00,40.00,9,5,0,0.00
2013-8-29,93,82,74,77,73,66,95,74,41,0.00,40.00,7,3,0,0.03
2013-8-30,94,83,75,79,75,70,95,78,45,0.00,40.00,10,4,0,0.00
2013-8-31,91,81,74,78,76,72,96,84,61,0.00,40.00,16,5,0,0.11
2013-9-1,93,80,73,77,72,-100,96,80,53,0.00,40.00,5,3,0,0.00
2013-9-2,92,86,81,77,76,72,87,71,56,0.00,40.00,7,5,0,0.00
2013-9-3,92,83,75,78,75,72,95,80,53,0.00,40.00,10,4,0,0.00
2013-9-4,92,82,75,79,76,72,95,81,61,0.00,40.00,11,4,0,0.00
2013-9-5,95,82,74,79,75,72,95,80,52,0.00,40.00,11,4,0,0.00
2013-9-6,92,80,74,80,76,72,97,87,61,0.00,40.00,13,4,0,0.19
2013-9-7,90,82,73,78,74,72,98,78,56,0.00,40.00,12,6,0,0.00
2013-9-8,91,80,73,77,71,-100,96,78,54,0.00,40.00,13,6,0,0.00
2013-9-9,91,81,72,75,71,67,95,74,45,0.00,40.00,11,6,0,0.00
2013-9-10,90,81,74,75,72,67,94,76,47,0.00,40.00,13,7,0,0.00
2013-9-11,91,82,74,76,73,67,96,77,47,0.00,40.00,13,7,0,0.00
2013-9-12,89,82,75,77,75,74,94,81,63,0.00,40.00,10,5,0,0.03
2013-9-13,92,81,73,76,73,69,97,79,47,0.00,40.00,8,4,0,0.00
2013-9-14,94,84,75,78,75,70,95,75,48,0.00,40.00,11,4,0,0.00
2013-9-15,88,79,76,79,73,-100,96,84,63,0.00,40.00,13,4,0,0.00
2013-9-16,93,82,73,77,74,70,96,79,48,0.00,40.00,11,5,0,0.00
2013-9-17,92,81,73,77,74,71,96,79,53,0.00,40.00,14,7,0,0.00
2013-9-18,77,75,74,74,73,72,95,93,90,0.00,40.00,8,5,0,0.00
2013-9-19,91,80,73,76,73,68,96,80,46,0.00,40.00,13,7,0,0.00
2013-9-20,90,79,70,71,70,68,94,75,50,0.00,40.00,10,5,0,0.00
2013-9-21,90,80,70,74,71,69,96,76,50,0.00,40.00,7,4,0,0.00
2013-9-22,91,79,75,77,72,-100,96,83,62,0.00,40.00,13,4,0,0.06
2013-9-23,85,77,74,79,75,73,97,94,76,0.00,40.00,8,4,0,1.04
2013-9-24,84,77,74,78,75,72,97,94,79,0.00,40.00,12,4,0,0.90
2013-9-25,82,78,75,76,74,72,96,88,78,0.00,40.00,12,7,0,0.03
2013-9-26,91,81,73,80,74,66,97,82,45,0.00,40.00,14,7,0,0.00
2013-9-27,82,74,70,74,70,-100,97,91,75,0.00,40.00,12,6,0,0.38
2013-9-28,83,76,71,75,72,70,97,86,71,0.00,40.00,12,7,0,0.00
2013-9-29,88,76,69,73,68,-100,96,79,50,0.00,40.00,15,5,0,0.00
2013-9-30,89,78,70,74,71,68,96,81,50,0.00,40.00,14,4,0,0.00
2013-10-1,78,76,74,71,70,70,86,81,77,0.00,40.00,8,6,0,0.00
2013-10-2,88,78,69,72,70,67,94,77,57,0.00,40.00,12,6,0,0.00
2013-10-3,90,79,69,74,70,67,94,77,52,0.00,40.00,8,5,0,0.00
2013-10-4,92,80,71,76,71,68,96,77,47,0.00,40.00,9,4,0,0.00
2013-10-5,90,79,69,75,72,69,97,81,56,0.00,40.00,11,5,0,0.00
2013-10-6,92,79,72,77,73,70,97,84,49,0.00,40.00,13,4,0,0.27
2013-10-7,85,77,73,79,74,72,97,92,78,0.00,40.00,9,4,0,0.06
2013-10-8,87,78,74,77,75,71,96,89,67,0.00,40.00,15,8,0,0.00
2013-10-9,80,73,67,71,69,65,94,87,71,0.00,40.00,13,9,0,0.00
2013-10-10,86,74,66,70,66,64,96,78,47,0.00,40.00,12,6,0,0.00
2013-10-11,85,73,65,71,67,64,97,83,52,0.00,40.00,7,3,0,0.00
2013-10-12,86,75,65,69,65,60,96,73,42,0.00,40.00,9,4,0,0.00
2013-10-13,86,75,64,68,62,-100,95,69,42,0.00,40.00,8,4,0,0.00
2013-10-14,87,75,67,70,67,65,95,79,50,0.00,40.00,15,7,0,0.00
2013-10-15,81,73,68,73,70,67,97,90,76,0.00,40.00,8,5,0,0.00
2013-10-16,86,77,72,73,71,66,97,83,52,0.00,40.00,8,5,0,0.00
2013-10-17,88,78,70,75,71,66,98,82,48,0.00,40.00,7,3,0,0.00
2013-10-18,90,80,71,76,72,70,97,79,51,0.00,40.00,10,4,0,0.00
2013-10-19,90,80,71,76,73,70,96,79,54,0.00,40.00,7,3,0,0.00
2013-10-20,88,78,73,75,72,-100,95,83,64,0.00,40.00,11,5,0,0.00
2013-10-21,90,79,71,77,74,70,96,84,59,0.00,40.00,11,4,0,0.00
2013-10-22,90,80,73,77,74,72,97,84,59,0.00,40.00,15,6,0,0.00
2013-10-23,81,75,67,73,64,53,95,71,43,0.00,40.00,13,7,0,0.00
2013-10-24,71,64,58,59,53,48,87,68,60,0.00,40.00,12,6,0,0.00
2013-10-25,81,67,56,59,55,49,95,69,37,0.00,40.00,9,5,0,0.00